Time;durP1;ratioP1;P1;durP2;ratioP2;P2;SDS_P1;SDS_P2;PMS_P1;PMS_P2;Temp;Humidity;BMP_temperature;BMP_pressure;BME280_temperature;BME280_humidity;BME280_pressure;Samples;Min_cycle;Max_cycle;Signal;HPM_P1;HPM_P2
2022/02/19 00:01:23;;;;;;;4.73;1.80;;;;;;;;;;5054150;28;20226;-80
2022/02/19 00:03:51;;;;;;;2.17;1.90;;;;;;;;;;5053126;28;20205;-80
2022/02/19 00:06:18;;;;;;;1.77;1.67;;;;;;;;;;5054188;28;20263;-79
2022/02/19 00:08:45;;;;;;;3.60;1.73;;;;;;;;;;5053715;28;20193;-80
2022/02/19 00:11:13;;;;;;;5.30;3.90;;;;;;;;;;5054057;28;20628;-80
2022/02/19 00:13:40;;;;;;;8.30;6.03;;;;;;;;;;5054064;28;20622;-79
2022/02/19 00:16:08;;;;;;;7.10;4.90;;;;;;;;;;5053746;28;20674;-79
2022/02/19 00:18:38;;;;;;;7.73;3.97;;;;;;;;;;5053748;28;20285;-80
2022/02/19 00:21:05;;;;;;;3.40;2.17;;;;;;;;;;5053784;28;20593;-79
2022/02/19 00:23:32;;;;;;;2.00;1.80;;;;;;;;;;5053698;28;20208;-79
2022/02/19 00:26:00;;;;;;;2.67;1.77;;;;;;;;;;5053639;28;20236;-79
2022/02/19 00:28:27;;;;;;;3.50;1.57;;;;;;;;;;5053487;28;20202;-80
2022/02/19 00:30:56;;;;;;;2.40;1.63;;;;;;;;;;5053541;28;20285;-79
2022/02/19 00:33:24;;;;;;;3.83;1.67;;;;;;;;;;5053795;28;20224;-79
2022/02/19 00:35:53;;;;;;;2.00;1.50;;;;;;;;;;5053452;28;20238;-80
2022/02/19 00:38:20;;;;;;;3.20;1.80;;;;;;;;;;5053366;28;20204;-80
2022/02/19 00:40:48;;;;;;;3.07;1.43;;;;;;;;;;5053186;28;20261;-79
2022/02/19 00:43:16;;;;;;;2.83;1.87;;;;;;;;;;5053455;28;20261;-80
2022/02/19 00:45:44;;;;;;;1.27;1.23;;;;;;;;;;5053541;28;20189;-80
2022/02/19 00:48:11;;;;;;;2.73;1.37;;;;;;;;;;5053480;28;20298;-80
2022/02/19 00:50:39;;;;;;;3.57;1.53;;;;;;;;;;5053630;28;20611;-79
2022/02/19 00:53:07;;;;;;;3.17;1.50;;;;;;;;;;5053227;28;20288;-80
2022/02/19 00:55:35;;;;;;;6.20;1.80;;;;;;;;;;5053036;28;20200;-79
2022/02/19 00:58:02;;;;;;;3.00;1.63;;;;;;;;;;5052934;28;20201;-80
2022/02/19 01:00:29;;;;;;;4.53;2.00;;;;;;;;;;5052801;28;20218;-80
2022/02/19 01:02:56;;;;;;;4.73;1.80;;;;;;;;;;5051816;28;20229;-80
2022/02/19 01:05:23;;;;;;;1.23;1.13;;;;;;;;;;5051404;28;20236;-80
2022/02/19 01:07:51;;;;;;;5.90;2.80;;;;;;;;;;5052983;28;20762;-81
2022/02/19 01:10:20;;;;;;;8.63;5.17;;;;;;;;;;5052672;28;20250;-80
2022/02/19 01:12:47;;;;;;;4.63;2.83;;;;;;;;;;5053038;28;20220;-80
2022/02/19 01:15:14;;;;;;;7.37;3.23;;;;;;;;;;5052541;28;20265;-80
2022/02/19 01:17:42;;;;;;;5.37;2.10;;;;;;;;;;5052563;28;20194;-80
2022/02/19 01:20:10;;;;;;;1.50;1.40;;;;;;;;;;5052470;28;20685;-80
2022/02/19 01:22:39;;;;;;;1.83;1.63;;;;;;;;;;5052575;28;20198;-80
2022/02/19 01:25:07;;;;;;;2.77;1.70;;;;;;;;;;5052620;28;20201;-80
2022/02/19 01:27:36;;;;;;;3.30;2.03;;;;;;;;;;5052495;28;20233;-80
2022/02/19 01:30:05;;;;;;;1.67;1.57;;;;;;;;;;5052579;28;20281;-80
2022/02/19 01:32:32;;;;;;;1.60;1.50;;;;;;;;;;5052704;28;20201;-80
2022/02/19 01:35:00;;;;;;;5.10;2.17;;;;;;;;;;5052413;28;20198;-80
2022/02/19 01:37:27;;;;;;;2.03;1.77;;;;;;;;;;5052530;28;20285;-81
2022/02/19 01:39:54;;;;;;;6.73;3.50;;;;;;;;;;5052187;28;20240;-81
2022/02/19 01:42:22;;;;;;;7.23;4.33;;;;;;;;;;5052208;28;20320;-81
2022/02/19 01:44:52;;;;;;;2.20;1.73;;;;;;;;;;5051846;28;20244;-80
2022/02/19 01:47:20;;;;;;;3.03;1.57;;;;;;;;;;5052701;28;20186;-80
2022/02/19 01:49:47;;;;;;;5.23;1.77;;;;;;;;;;5052174;28;20202;-80
2022/02/19 01:52:17;;;;;;;4.63;1.73;;;;;;;;;;5052570;28;20285;-80
2022/02/19 01:54:44;;;;;;;3.37;2.10;;;;;;;;;;5052238;28;20197;-80
2022/02/19 01:57:12;;;;;;;2.37;1.70;;;;;;;;;;5052415;28;20284;-80
2022/02/19 01:59:41;;;;;;;3.23;1.63;;;;;;;;;;5052385;28;20588;-80
2022/02/19 02:02:10;;;;;;;4.23;2.00;;;;;;;;;;5052554;28;20317;-80
2022/02/19 02:04:38;;;;;;;6.03;1.97;;;;;;;;;;5052581;28;20202;-80
2022/02/19 02:07:06;;;;;;;7.87;3.37;;;;;;;;;;5051985;28;20208;-80
2022/02/19 02:09:34;;;;;;;8.03;3.20;;;;;;;;;;5052045;28;20580;-80
2022/02/19 02:12:02;;;;;;;42.13;20.07;;;;;;;;;;5051935;28;20197;-79
2022/02/19 02:14:29;;;;;;;23.97;12.87;;;;;;;;;;5052344;28;20255;-80
2022/02/19 02:16:57;;;;;;;9.10;5.73;;;;;;;;;;5051909;28;20255;-80
2022/02/19 02:19:25;;;;;;;10.53;5.33;;;;;;;;;;5051731;28;20732;-82
2022/02/19 02:21:54;;;;;;;4.47;3.20;;;;;;;;;;5051805;28;20312;-79
2022/02/19 02:24:21;;;;;;;4.30;2.83;;;;;;;;;;5051872;28;20248;-78
2022/02/19 02:26:49;;;;;;;4.83;2.70;;;;;;;;;;5052589;28;20202;-79
2022/02/19 02:29:16;;;;;;;5.33;2.63;;;;;;;;;;5055908;28;20301;-79
2022/02/19 02:31:43;;;;;;;2.47;1.90;;;;;;;;;;5055921;28;20277;-79
2022/02/19 02:34:10;;;;;;;5.73;2.30;;;;;;;;;;5055782;28;20631;-79
2022/02/19 02:36:37;;;;;;;4.60;2.10;;;;;;;;;;5055657;28;20201;-79
2022/02/19 02:39:06;;;;;;;3.50;2.00;;;;;;;;;;5055480;28;20209;-78
2022/02/19 02:41:33;;;;;;;5.37;2.30;;;;;;;;;;5055403;28;20222;-79
2022/02/19 02:44:00;;;;;;;2.53;2.33;;;;;;;;;;5055592;28;20312;-78
2022/02/19 02:46:28;;;;;;;5.50;2.67;;;;;;;;;;5055329;28;20292;-78
2022/02/19 02:48:55;;;;;;;4.17;2.00;;;;;;;;;;5055282;28;20205;-78
2022/02/19 02:51:22;;;;;;;1.90;1.50;;;;;;;;;;5055328;28;20194;-78
2022/02/19 02:53:49;;;;;;;2.67;1.73;;;;;;;;;;5055152;28;20202;-78
2022/02/19 02:56:18;;;;;;;15.33;9.70;;;;;;;;;;5055607;28;20202;-78
2022/02/19 02:58:45;;;;;;;19.93;9.63;;;;;;;;;;5055135;28;20289;-78
2022/02/19 03:01:13;;;;;;;12.27;7.93;;;;;;;;;;5054884;28;20280;-78
2022/02/19 03:03:40;;;;;;;8.57;5.00;;;;;;;;;;5055181;28;20198;-78
2022/02/19 03:06:07;;;;;;;4.73;3.23;;;;;;;;;;5054863;28;20198;-78
2022/02/19 03:08:34;;;;;;;3.07;2.03;;;;;;;;;;5054857;28;20662;-78
2022/02/19 03:11:02;;;;;;;16.03;7.53;;;;;;;;;;5054847;28;20198;-78
2022/02/19 03:13:31;;;;;;;14.20;7.73;;;;;;;;;;5054874;28;20658;-78
2022/02/19 03:15:58;;;;;;;6.27;4.00;;;;;;;;;;5046329;28;20233;-78
2022/02/19 03:18:25;;;;;;;27.30;14.43;;;;;;;;;;5054278;28;20289;-78
2022/02/19 03:20:52;;;;;;;27.60;11.30;;;;;;;;;;5054504;28;20339;-78
2022/02/19 03:23:20;;;;;;;9.97;5.77;;;;;;;;;;5054911;28;20198;-78
2022/02/19 03:25:47;;;;;;;7.30;4.40;;;;;;;;;;5054868;28;20590;-78
2022/02/19 03:28:14;;;;;;;5.67;3.00;;;;;;;;;;5054447;28;20238;-78
2022/02/19 03:30:43;;;;;;;17.90;7.83;;;;;;;;;;5054341;28;20751;-79
2022/02/19 03:33:10;;;;;;;11.70;5.83;;;;;;;;;;5054377;28;20233;-78
2022/02/19 03:35:37;;;;;;;10.20;6.33;;;;;;;;;;5054353;28;20198;-78
2022/02/19 03:38:04;;;;;;;9.00;6.43;;;;;;;;;;5053816;28;20241;-79
2022/02/19 03:40:32;;;;;;;9.03;7.27;;;;;;;;;;5053511;28;20204;-78
2022/02/19 03:43:01;;;;;;;5.93;4.40;;;;;;;;;;5053824;28;20225;-79
2022/02/19 03:45:29;;;;;;;4.83;3.93;;;;;;;;;;5054708;28;20194;-79
2022/02/19 03:47:58;;;;;;;4.63;3.27;;;;;;;;;;5054178;28;20237;-79
2022/02/19 03:50:25;;;;;;;4.40;2.77;;;;;;;;;;5054366;28;20229;-78
2022/02/19 03:52:52;;;;;;;4.67;2.53;;;;;;;;;;5054182;28;20204;-79
2022/02/19 03:55:19;;;;;;;4.33;2.53;;;;;;;;;;5054051;28;20329;-78
2022/02/19 03:57:46;;;;;;;7.43;2.90;;;;;;;;;;5054246;28;20576;-78
2022/02/19 04:00:15;;;;;;;7.40;4.70;;;;;;;;;;5054122;28;20209;-78
2022/02/19 04:02:43;;;;;;;2.70;2.40;;;;;;;;;;5053715;28;20320;-78
2022/02/19 04:05:13;;;;;;;4.33;2.57;;;;;;;;;;5054086;28;20206;-78
2022/02/19 04:07:40;;;;;;;2.43;1.93;;;;;;;;;;5054015;28;20202;-78
2022/02/19 04:10:09;;;;;;;5.70;4.23;;;;;;;;;;5054090;28;20202;-78
2022/02/19 04:12:37;;;;;;;9.30;6.33;;;;;;;;;;5053427;28;20285;-79
2022/02/19 04:15:05;;;;;;;5.60;4.33;;;;;;;;;;5053812;28;20190;-78
2022/02/19 04:17:32;;;;;;;3.50;3.10;;;;;;;;;;5053274;28;20205;-79
2022/02/19 04:19:59;;;;;;;3.87;2.70;;;;;;;;;;5053792;28;20252;-78
2022/02/19 04:22:28;;;;;;;1.80;1.70;;;;;;;;;;5053171;28;20222;-78
2022/02/19 04:24:55;;;;;;;4.53;2.00;;;;;;;;;;5053472;28;20236;-79
2022/02/19 04:27:23;;;;;;;2.10;1.90;;;;;;;;;;5053307;28;20646;-78
2022/02/19 04:29:50;;;;;;;2.97;2.20;;;;;;;;;;5053373;28;20205;-78
2022/02/19 04:32:17;;;;;;;4.67;2.03;;;;;;;;;;5053254;28;20190;-78
2022/02/19 04:34:44;;;;;;;3.50;2.40;;;;;;;;;;5053321;28;20229;-79
2022/02/19 04:37:11;;;;;;;3.60;1.87;;;;;;;;;;5053067;28;20202;-79
2022/02/19 04:39:40;;;;;;;3.90;1.80;;;;;;;;;;5053137;28;20297;-78
2022/02/19 04:42:08;;;;;;;3.47;1.70;;;;;;;;;;5052849;28;20312;-78
2022/02/19 04:44:36;;;;;;;1.43;1.30;;;;;;;;;;5052884;28;20222;-79
2022/02/19 04:47:03;;;;;;;2.67;1.70;;;;;;;;;;5052950;28;20670;-79
2022/02/19 04:49:31;;;;;;;2.13;1.50;;;;;;;;;;5053181;28;20200;-78
2022/02/19 04:51:58;;;;;;;2.27;1.70;;;;;;;;;;5052944;28;20205;-78
2022/02/19 04:54:25;;;;;;;2.37;1.47;;;;;;;;;;5052956;28;20198;-79
2022/02/19 04:56:54;;;;;;;2.47;1.50;;;;;;;;;;5052953;28;20194;-79
2022/02/19 04:59:21;;;;;;;1.43;1.33;;;;;;;;;;5052858;28;20255;-79
2022/02/19 05:01:49;;;;;;;5.57;1.73;;;;;;;;;;5053303;28;20356;-78
2022/02/19 05:04:19;;;;;;;2.43;1.50;;;;;;;;;;5052595;28;20202;-78
2022/02/19 05:06:46;;;;;;;3.87;2.33;;;;;;;;;;5052664;28;20205;-78
2022/02/19 05:09:13;;;;;;;5.43;2.40;;;;;;;;;;5050784;28;20244;-78
2022/02/19 05:11:41;;;;;;;3.30;2.00;;;;;;;;;;5052544;28;20229;-78
2022/02/19 05:14:09;;;;;;;2.77;2.30;;;;;;;;;;5052353;28;20288;-78
2022/02/19 05:16:36;;;;;;;2.57;1.70;;;;;;;;;;5052389;28;20202;-78
2022/02/19 05:19:04;;;;;;;2.93;1.80;;;;;;;;;;5052557;28;20281;-78
2022/02/19 05:21:31;;;;;;;5.63;2.00;;;;;;;;;;5052829;28;20252;-79
2022/02/19 05:23:58;;;;;;;2.93;1.63;;;;;;;;;;5053552;28;20256;-78
2022/02/19 05:26:26;;;;;;;4.23;1.70;;;;;;;;;;5052715;28;20198;-79
2022/02/19 05:28:53;;;;;;;4.93;1.67;;;;;;;;;;5053094;28;20297;-78
2022/02/19 05:31:21;;;;;;;4.30;1.90;;;;;;;;;;5052605;28;20325;-79
2022/02/19 05:33:49;;;;;;;4.20;2.33;;;;;;;;;;5053124;28;20766;-79
2022/02/19 05:36:16;;;;;;;8.93;2.97;;;;;;;;;;5052871;28;20244;-79
2022/02/19 05:38:43;;;;;;;9.00;4.07;;;;;;;;;;5052730;28;20578;-78
2022/02/19 05:41:11;;;;;;;31.70;15.33;;;;;;;;;;5051974;28;20293;-78
2022/02/19 05:43:38;;;;;;;39.53;18.50;;;;;;;;;;5051625;28;20320;-79
2022/02/19 05:46:05;;;;;;;62.40;34.20;;;;;;;;;;5051686;28;20197;-79
2022/02/19 05:48:34;;;;;;;44.50;26.20;;;;;;;;;;5051853;28;20292;-79
2022/02/19 05:51:01;;;;;;;34.70;22.83;;;;;;;;;;5051859;28;20202;-79
2022/02/19 05:53:28;;;;;;;30.07;20.97;;;;;;;;;;5051654;28;20194;-79
2022/02/19 05:55:55;;;;;;;19.77;13.20;;;;;;;;;;5051716;28;20193;-79
2022/02/19 05:58:22;;;;;;;26.27;21.47;;;;;;;;;;5051809;28;20252;-79
2022/02/19 06:00:50;;;;;;;33.23;22.03;;;;;;;;;;5051799;28;20584;-79
2022/02/19 06:03:17;;;;;;;23.97;14.23;;;;;;;;;;5050854;28;20728;-79
2022/02/19 06:05:46;;;;;;;27.27;20.47;;;;;;;;;;5051521;28;20225;-79
2022/02/19 06:08:13;;;;;;;24.93;18.53;;;;;;;;;;5051377;28;20689;-79
2022/02/19 06:10:40;;;;;;;21.50;17.50;;;;;;;;;;5051748;28;20194;-80
2022/02/19 06:13:07;;;;;;;17.80;14.00;;;;;;;;;;5051509;28;20194;-80
2022/02/19 06:15:34;;;;;;;13.70;11.03;;;;;;;;;;5051353;28;20190;-79
2022/02/19 06:18:01;;;;;;;14.03;8.53;;;;;;;;;;5051831;28;20198;-79
2022/02/19 06:20:29;;;;;;;19.97;12.17;;;;;;;;;;5051562;28;20201;-79
2022/02/19 06:22:59;;;;;;;14.83;12.73;;;;;;;;;;5051929;28;20248;-79
2022/02/19 06:25:26;;;;;;;19.30;16.27;;;;;;;;;;5051562;28;20190;-80
2022/02/19 06:27:53;;;;;;;19.30;17.27;;;;;;;;;;5051530;28;20201;-80
2022/02/19 06:30:21;;;;;;;15.57;13.87;;;;;;;;;;5051544;28;20225;-80
2022/02/19 06:32:48;;;;;;;12.10;10.43;;;;;;;;;;5051515;28;20293;-80
2022/02/19 06:35:15;;;;;;;13.63;10.17;;;;;;;;;;5051608;28;20229;-80
2022/02/19 06:37:44;;;;;;;10.03;6.43;;;;;;;;;;5051735;28;20639;-82
2022/02/19 06:40:14;;;;;;;9.23;8.23;;;;;;;;;;5051866;28;20202;-80
2022/02/19 06:42:42;;;;;;;6.87;6.17;;;;;;;;;;5057550;28;20229;-80
2022/02/19 06:45:10;;;;;;;5.80;5.30;;;;;;;;;;5057458;28;20234;-81
2022/02/19 06:47:38;;;;;;;9.03;6.07;;;;;;;;;;5058258;28;20209;-80
2022/02/19 06:50:07;;;;;;;7.57;6.20;;;;;;;;;;5059739;28;20229;-81
2022/02/19 06:52:34;;;;;;;7.40;4.87;;;;;;;;;;5059549;28;20670;-80
2022/02/19 06:55:01;;;;;;;3.87;3.03;;;;;;;;;;5057300;28;20255;-81
2022/02/19 06:57:30;;;;;;;7.27;2.80;;;;;;;;;;5058568;28;20194;-81
2022/02/19 06:59:57;;;;;;;3.67;2.50;;;;;;;;;;5056163;28;20241;-81
2022/02/19 07:02:24;;;;;;;6.37;3.27;;;;;;;;;;5051289;28;20222;-81
2022/02/19 07:04:51;;;;;;;5.00;4.30;;;;;;;;;;5051612;28;20640;-80
2022/02/19 07:07:19;;;;;;;6.67;4.40;;;;;;;;;;5050800;28;20194;-80
2022/02/19 07:09:46;;;;;;;7.40;4.23;;;;;;;;;;5051671;28;20225;-80
2022/02/19 07:12:13;;;;;;;4.43;3.60;;;;;;;;;;5051807;28;20198;-81
2022/02/19 07:14:42;;;;;;;4.43;4.03;;;;;;;;;;5055033;28;20586;-80
2022/02/19 07:17:10;;;;;;;18.90;4.10;;;;;;;;;;5055392;28;20198;-80
2022/02/19 07:19:37;;;;;;;7.03;5.13;;;;;;;;;;5055557;28;20205;-80
2022/02/19 07:22:05;;;;;;;5.27;4.00;;;;;;;;;;5054744;28;20201;-80
2022/02/19 07:24:32;;;;;;;5.33;3.03;;;;;;;;;;5054231;28;20233;-80
2022/02/19 07:27:00;;;;;;;5.67;3.10;;;;;;;;;;5054434;28;20288;-78
2022/02/19 07:29:27;;;;;;;7.43;3.80;;;;;;;;;;5053994;28;20682;-78
2022/02/19 07:31:56;;;;;;;4.80;3.27;;;;;;;;;;5054261;28;20198;-78
2022/02/19 07:34:23;;;;;;;7.50;3.83;;;;;;;;;;5054098;28;20692;-79
2022/02/19 07:36:50;;;;;;;8.13;3.70;;;;;;;;;;5054170;28;20237;-79
2022/02/19 07:39:17;;;;;;;4.97;3.50;;;;;;;;;;5054220;28;20304;-78
2022/02/19 07:41:45;;;;;;;5.17;3.33;;;;;;;;;;5054132;28;20288;-79
2022/02/19 07:44:13;;;;;;;4.17;3.10;;;;;;;;;;5053715;28;20718;-81
2022/02/19 07:46:40;;;;;;;10.50;4.30;;;;;;;;;;5053867;28;20190;-79
2022/02/19 08:00:08;;;;;;;13.70;8.63;;;;;;;;;;5054427;28;20244;-80
2022/02/19 08:02:36;;;;;;;7.30;4.20;;;;;;;;;;5053789;28;20275;-82
2022/02/19 08:05:05;;;;;;;9.50;4.07;;;;;;;;;;5054212;28;20232;-79
2022/02/19 08:07:32;;;;;;;19.47;14.40;;;;;;;;;;5053842;28;20297;-80
2022/02/19 08:09:59;;;;;;;13.27;11.03;;;;;;;;;;5053837;28;20205;-79
2022/02/19 08:12:26;;;;;;;4.30;3.30;;;;;;;;;;5054015;28;20281;-79
2022/02/19 08:14:54;;;;;;;7.87;5.70;;;;;;;;;;5053664;28;20229;-79
2022/02/19 08:17:21;;;;;;;7.63;3.67;;;;;;;;;;5053596;28;20293;-80
2022/02/19 08:19:49;;;;;;;7.57;3.73;;;;;;;;;;5053445;28;20201;-80
2022/02/19 08:22:18;;;;;;;2.40;2.20;;;;;;;;;;5053364;28;20202;-80
2022/02/19 08:24:45;;;;;;;7.63;2.33;;;;;;;;;;5052775;28;20206;-80
2022/02/19 08:27:12;;;;;;;3.00;2.23;;;;;;;;;;5053697;28;20259;-80
2022/02/19 08:29:39;;;;;;;7.43;3.07;;;;;;;;;;5053348;28;20289;-81
2022/02/19 08:32:07;;;;;;;3.67;1.97;;;;;;;;;;5053232;28;20285;-79
2022/02/19 08:34:34;;;;;;;6.00;3.00;;;;;;;;;;5053453;28;20237;-79
2022/02/19 08:37:02;;;;;;;5.77;2.70;;;;;;;;;;5053130;28;20635;-79
2022/02/19 08:39:32;;;;;;;5.30;2.60;;;;;;;;;;5053551;28;20198;-79
2022/02/19 08:41:59;;;;;;;21.27;16.30;;;;;;;;;;5053149;28;20289;-79
2022/02/19 08:44:26;;;;;;;9.80;6.60;;;;;;;;;;5052828;28;20230;-79
2022/02/19 08:46:54;;;;;;;10.23;6.43;;;;;;;;;;5053054;28;20583;-79
2022/02/19 08:49:21;;;;;;;19.17;10.63;;;;;;;;;;5053304;28;20201;-80
2022/02/19 08:51:48;;;;;;;15.13;9.20;;;;;;;;;;5052966;28;20709;-80
2022/02/19 08:54:15;;;;;;;31.27;17.80;;;;;;;;;;5052846;28;20204;-80
2022/02/19 08:56:47;;;;;;;23.07;14.93;;;;;;;;;;5052893;28;20241;-82
2022/02/19 08:59:14;;;;;;;7.53;4.97;;;;;;;;;;5052818;28;20182;-79
2022/02/19 09:01:41;;;;;;;19.93;12.43;;;;;;;;;;5052606;28;20251;-79
2022/02/19 09:04:09;;;;;;;7.83;5.73;;;;;;;;;;5052606;28;20604;-80
2022/02/19 09:06:36;;;;;;;11.70;7.10;;;;;;;;;;5052638;28;20194;-80
2022/02/19 09:09:05;;;;;;;7.70;5.23;;;;;;;;;;5052845;28;20198;-80
2022/02/19 09:11:33;;;;;;;8.27;4.17;;;;;;;;;;5052562;28;20679;-80
2022/02/19 09:14:01;;;;;;;9.00;7.23;;;;;;;;;;5052525;28;20200;-80
2022/02/19 09:16:32;;;;;;;5.70;3.90;;;;;;;;;;5052448;28;20198;-80
2022/02/19 09:18:59;;;;;;;21.47;15.57;;;;;;;;;;5052545;28;20201;-81
2022/02/19 09:21:28;;;;;;;23.17;18.10;;;;;;;;;;5052844;28;20249;-80
2022/02/19 09:23:55;;;;;;;9.33;6.63;;;;;;;;;;5052342;28;20812;-81
2022/02/19 09:26:22;;;;;;;6.67;3.77;;;;;;;;;;5052619;28;20256;-81
2022/02/19 09:28:50;;;;;;;6.47;3.67;;;;;;;;;;5052642;28;20198;-81
2022/02/19 09:31:19;;;;;;;3.27;2.40;;;;;;;;;;5052366;28;20674;-81
2022/02/19 09:33:47;;;;;;;5.67;3.43;;;;;;;;;;5052218;28;20199;-80
2022/02/19 09:36:14;;;;;;;4.87;4.30;;;;;;;;;;5051551;28;20198;-80
2022/02/19 09:38:42;;;;;;;12.50;7.07;;;;;;;;;;5051867;28;20713;-81
2022/02/19 09:41:11;;;;;;;9.27;5.30;;;;;;;;;;5052197;28;20186;-81
2022/02/19 09:43:38;;;;;;;37.83;22.00;;;;;;;;;;5051734;28;20239;-81
2022/02/19 09:46:07;;;;;;;15.73;11.50;;;;;;;;;;5052015;28;20198;-81
2022/02/19 09:48:37;;;;;;;10.80;8.83;;;;;;;;;;5052180;28;20193;-80
2022/02/19 09:51:05;;;;;;;13.27;9.77;;;;;;;;;;5052388;28;20282;-80
2022/02/19 09:53:33;;;;;;;10.30;6.03;;;;;;;;;;5051766;28;20257;-81
2022/02/19 09:56:01;;;;;;;7.57;4.90;;;;;;;;;;5051765;28;20207;-80
2022/02/19 09:58:28;;;;;;;8.17;5.17;;;;;;;;;;5051787;28;20245;-81
2022/02/19 10:00:56;;;;;;;6.10;3.70;;;;;;;;;;5052166;28;20204;-81
2022/02/19 10:03:27;;;;;;;2.67;2.47;;;;;;;;;;5052017;28;20632;-81
2022/02/19 10:05:56;;;;;;;3.27;2.60;;;;;;;;;;5052233;28;20292;-80
2022/02/19 10:08:23;;;;;;;3.33;2.37;;;;;;;;;;5051623;28;20289;-80
2022/02/19 10:10:52;;;;;;;3.87;2.40;;;;;;;;;;5051649;28;20201;-81
2022/02/19 10:13:29;;;;;;;3.83;2.07;;;;;;;;;;5051659;28;20201;-81
2022/02/19 10:15:57;;;;;;;3.40;2.90;;;;;;;;;;5051664;28;20205;-81
2022/02/19 10:18:25;;;;;;;3.70;3.40;;;;;;;;;;5051715;28;20670;-81
2022/02/19 10:20:53;;;;;;;4.83;4.33;;;;;;;;;;5051659;28;20682;-80
2022/02/19 10:23:25;;;;;;;4.77;3.20;;;;;;;;;;5051591;28;20247;-81
2022/02/19 10:26:02;;;;;;;4.87;3.30;;;;;;;;;;5051611;28;20197;-81
2022/02/19 10:28:29;;;;;;;4.87;3.63;;;;;;;;;;5051755;28;20233;-81
2022/02/19 10:30:56;;;;;;;2.73;2.40;;;;;;;;;;5051949;28;20642;-81
2022/02/19 10:33:27;;;;;;;3.50;2.23;;;;;;;;;;5051687;28;20198;-81
2022/02/19 10:35:55;;;;;;;4.33;3.40;;;;;;;;;;5051861;28;20178;-81
2022/02/19 10:38:24;;;;;;;6.00;2.73;;;;;;;;;;5051888;28;20228;-81
2022/02/19 10:40:52;;;;;;;4.03;2.23;;;;;;;;;;5051771;28;20201;-80
2022/02/19 10:43:22;;;;;;;3.27;2.37;;;;;;;;;;5051192;28;20237;-81
2022/02/19 10:45:53;;;;;;;5.33;2.80;;;;;;;;;;5051644;28;20194;-83
2022/02/19 10:48:23;;;;;;;4.60;2.90;;;;;;;;;;5052822;28;20705;-81
2022/02/19 10:50:51;;;;;;;3.37;2.40;;;;;;;;;;5055509;28;20200;-81
2022/02/19 10:53:25;;;;;;;4.43;2.63;;;;;;;;;;5055210;28;20198;-82
2022/02/19 10:55:53;;;;;;;8.90;3.57;;;;;;;;;;5055168;28;20182;-80
2022/02/19 10:58:20;;;;;;;4.67;2.80;;;;;;;;;;5055161;28;20685;-82
2022/02/19 11:00:48;;;;;;;6.67;2.70;;;;;;;;;;5054939;28;20205;-82
2022/02/19 11:03:16;;;;;;;3.57;2.57;;;;;;;;;;5054941;28;20288;-81
2022/02/19 11:05:43;;;;;;;5.43;2.97;;;;;;;;;;5054879;28;20206;-80
2022/02/19 11:08:11;;;;;;;4.10;2.73;;;;;;;;;;5054845;28;20198;-83
2022/02/19 11:10:40;;;;;;;8.50;4.70;;;;;;;;;;5055075;28;20202;-80
2022/02/19 11:13:07;;;;;;;38.03;19.83;;;;;;;;;;5054781;28;20205;-80
2022/02/19 11:15:35;;;;;;;7.03;3.80;;;;;;;;;;5054832;28;20276;-80
2022/02/19 11:18:05;;;;;;;7.73;4.23;;;;;;;;;;5054954;28;20713;-81
2022/02/19 11:20:33;;;;;;;15.40;10.97;;;;;;;;;;5055233;28;20225;-81
2022/02/19 11:23:01;;;;;;;27.87;18.53;;;;;;;;;;5047269;28;20241;-80
2022/02/19 11:25:29;;;;;;;8.20;6.20;;;;;;;;;;5054331;28;20226;-81
2022/02/19 11:28:02;;;;;;;4.37;3.40;;;;;;;;;;5054669;28;20202;-80
2022/02/19 11:30:31;;;;;;;5.67;3.30;;;;;;;;;;5054516;28;20182;-80
2022/02/19 11:32:59;;;;;;;4.97;3.00;;;;;;;;;;5054286;28;20285;-80
2022/02/19 11:35:35;;;;;;;9.43;5.03;;;;;;;;;;5053716;28;20225;-81
2022/02/19 11:38:03;;;;;;;5.23;3.13;;;;;;;;;;5046764;28;20300;-80
2022/02/19 11:40:44;;;;;;;4.77;3.30;;;;;;;;;;5054175;28;20201;-80
2022/02/19 11:43:40;;;;;;;7.03;3.60;;;;;;;;;;5054070;28;20186;-81
2022/02/19 11:46:12;;;;;;;4.00;3.10;;;;;;;;;;5054186;28;20615;-81
2022/02/19 11:48:41;;;;;;;5.40;2.97;;;;;;;;;;5053008;28;20206;-81
2022/02/19 11:51:18;;;;;;;3.53;3.03;;;;;;;;;;5053474;28;20194;-78
2022/02/19 11:53:46;;;;;;;5.87;2.47;;;;;;;;;;5052640;28;20206;-79
2022/02/19 11:56:27;;;;;;;3.83;3.10;;;;;;;;;;5053948;28;20206;-79
2022/02/19 11:58:57;;;;;;;4.50;2.63;;;;;;;;;;5053583;28;20193;-79
2022/02/19 12:01:24;;;;;;;2.90;2.60;;;;;;;;;;5053486;28;20624;-80
2022/02/19 12:04:13;;;;;;;6.13;3.67;;;;;;;;;;5053975;28;20644;-80
2022/02/19 12:06:40;;;;;;;7.07;3.33;;;;;;;;;;5053818;28;20712;-79
2022/02/19 12:09:17;;;;;;;6.17;2.43;;;;;;;;;;5053660;28;20204;-79
2022/02/19 12:12:03;;;;;;;8.87;3.73;;;;;;;;;;5053600;28;20242;-79
2022/02/19 12:14:57;;;;;;;8.53;4.33;;;;;;;;;;5053873;28;20190;-79
2022/02/19 12:17:26;;;;;;;6.87;5.07;;;;;;;;;;5053542;28;20182;-79
2022/02/19 12:20:02;;;;;;;6.43;4.27;;;;;;;;;;5053529;28;20197;-80
2022/02/19 12:22:34;;;;;;;10.93;8.40;;;;;;;;;;5053458;28;20186;-80
2022/02/19 12:25:02;;;;;;;8.83;4.77;;;;;;;;;;5053329;28;20206;-80
2022/02/19 12:27:30;;;;;;;8.73;7.83;;;;;;;;;;5053597;28;20224;-79
2022/02/19 12:30:23;;;;;;;16.63;9.37;;;;;;;;;;5053223;28;20277;-80
2022/02/19 12:32:52;;;;;;;8.73;5.90;;;;;;;;;;5040593;28;20210;-80
2022/02/19 12:35:19;;;;;;;15.27;8.97;;;;;;;;;;5053230;28;20198;-80
2022/02/19 12:37:47;;;;;;;13.90;11.57;;;;;;;;;;5053912;28;20198;-80
2022/02/19 12:40:19;;;;;;;17.10;12.13;;;;;;;;;;5053079;28;20202;-79
2022/02/19 12:42:50;;;;;;;15.73;10.73;;;;;;;;;;5052911;28;20202;-80
2022/02/19 12:45:19;;;;;;;18.60;11.37;;;;;;;;;;5052987;28;20612;-80
2022/02/19 12:47:48;;;;;;;19.27;12.20;;;;;;;;;;5052888;28;20670;-80
2022/02/19 12:50:17;;;;;;;15.23;10.87;;;;;;;;;;5052831;28;20201;-80
2022/02/19 12:52:47;;;;;;;20.33;12.87;;;;;;;;;;5052829;28;20227;-81
2022/02/19 12:55:18;;;;;;;24.97;15.90;;;;;;;;;;5052788;28;20193;-83
2022/02/19 12:57:47;;;;;;;16.77;9.90;;;;;;;;;;5052808;28;20716;-80
2022/02/19 13:00:15;;;;;;;15.93;9.37;;;;;;;;;;5052648;28;20202;-80
2022/02/19 13:02:44;;;;;;;17.37;10.07;;;;;;;;;;5052749;28;20204;-80
2022/02/19 13:05:14;;;;;;;16.83;8.77;;;;;;;;;;5052445;28;20222;-80
2022/02/19 13:07:41;;;;;;;15.53;10.60;;;;;;;;;;5052712;28;20202;-80
2022/02/19 13:10:10;;;;;;;18.67;11.03;;;;;;;;;;5052810;28;20228;-80
2022/02/19 13:12:38;;;;;;;11.97;8.50;;;;;;;;;;5052641;28;20198;-80
2022/02/19 13:15:07;;;;;;;8.93;6.20;;;;;;;;;;5052662;28;20194;-81
2022/02/19 13:17:34;;;;;;;13.03;8.00;;;;;;;;;;5052352;28;20696;-80
2022/02/19 13:20:10;;;;;;;13.33;8.50;;;;;;;;;;5052214;28;20197;-81
2022/02/19 13:22:40;;;;;;;12.70;8.97;;;;;;;;;;5052367;28;20221;-80
2022/02/19 13:25:09;;;;;;;14.43;7.70;;;;;;;;;;5052171;28;20705;-80
2022/02/19 13:27:37;;;;;;;7.97;6.07;;;;;;;;;;5052706;28;20572;-80
2022/02/19 13:30:09;;;;;;;12.53;5.83;;;;;;;;;;5052186;28;20204;-80
2022/02/19 13:32:38;;;;;;;10.83;6.30;;;;;;;;;;5052165;28;20193;-80
2022/02/19 13:35:08;;;;;;;11.57;6.50;;;;;;;;;;5052019;28;20201;-81
2022/02/19 13:37:36;;;;;;;13.37;8.03;;;;;;;;;;5052313;28;20206;-79
2022/02/19 13:40:10;;;;;;;13.60;6.20;;;;;;;;;;5051997;28;20680;-80
2022/02/19 13:42:40;;;;;;;10.47;7.37;;;;;;;;;;5051976;28;20196;-80
2022/02/19 13:45:08;;;;;;;11.40;6.53;;;;;;;;;;5051365;28;20234;-80
2022/02/19 13:47:35;;;;;;;10.53;7.10;;;;;;;;;;5051846;28;20197;-80
2022/02/19 13:50:04;;;;;;;11.23;6.30;;;;;;;;;;5051804;28;20666;-80
2022/02/19 13:52:33;;;;;;;9.33;6.17;;;;;;;;;;5052038;28;20697;-82
2022/02/19 13:55:11;;;;;;;11.87;6.20;;;;;;;;;;5051766;28;20256;-79
2022/02/19 13:57:38;;;;;;;8.87;5.30;;;;;;;;;;5051868;28;20186;-80
2022/02/19 14:00:11;;;;;;;7.77;4.67;;;;;;;;;;5052133;28;20558;-79
2022/02/19 14:02:38;;;;;;;7.73;4.30;;;;;;;;;;5051844;28;20218;-79
2022/02/19 14:05:07;;;;;;;9.27;5.87;;;;;;;;;;5051618;28;20237;-79
2022/02/19 14:07:52;;;;;;;10.50;7.97;;;;;;;;;;5052028;28;20194;-79
2022/02/19 14:10:22;;;;;;;14.13;6.30;;;;;;;;;;5051804;28;20277;-79
2022/02/19 14:12:50;;;;;;;11.47;6.90;;;;;;;;;;5051632;28;20206;-79
2022/02/19 14:15:19;;;;;;;10.20;4.93;;;;;;;;;;5051740;28;20249;-79
2022/02/19 14:17:47;;;;;;;8.57;4.47;;;;;;;;;;5051696;28;20244;-81
2022/02/19 14:20:15;;;;;;;13.40;7.73;;;;;;;;;;5039510;28;20195;-81
2022/02/19 14:22:44;;;;;;;15.20;8.10;;;;;;;;;;5032356;28;20198;-81
2022/02/19 14:25:17;;;;;;;7.77;6.20;;;;;;;;;;5036130;28;20312;-80
2022/02/19 14:27:50;;;;;;;12.10;6.20;;;;;;;;;;5048773;28;20622;-81
2022/02/19 14:30:18;;;;;;;8.97;6.83;;;;;;;;;;5039762;28;20190;-82
2022/02/19 14:32:45;;;;;;;13.50;5.50;;;;;;;;;;5036646;28;20281;-81
2022/02/19 14:35:12;;;;;;;9.77;5.03;;;;;;;;;;5036688;28;20286;-81
2022/02/19 14:37:40;;;;;;;12.27;7.83;;;;;;;;;;5038061;28;20190;-81
2022/02/19 14:40:08;;;;;;;18.17;9.33;;;;;;;;;;5052447;28;20193;-80
2022/02/19 14:42:35;;;;;;;13.07;8.27;;;;;;;;;;5040238;28;20587;-80
2022/02/19 14:45:05;;;;;;;16.07;10.77;;;;;;;;;;5036238;28;20234;-81
2022/02/19 14:47:32;;;;;;;23.50;16.17;;;;;;;;;;5042449;28;20726;-81
2022/02/19 14:49:59;;;;;;;37.47;22.73;;;;;;;;;;5045836;28;20233;-81
2022/02/19 14:52:27;;;;;;;130.10;72.77;;;;;;;;;;5035431;28;20289;-80
2022/02/19 14:54:54;;;;;;;34.20;23.93;;;;;;;;;;5035438;28;20670;-81